sensor_id;sensor_type;location;lat;lon;timestamp;P1;durP1;ratioP1;P2;durP2;ratioP2
31526;SDS011;18136;42.236;-73.040;2023-03-23T00:01:06;2.00;;;1.38;;
31526;SDS011;18136;42.236;-73.040;2023-03-23T00:03:38;2.55;;;1.20;;
31526;SDS011;18136;42.236;-73.040;2023-03-23T00:06:06;2.90;;;1.77;;
31526;SDS011;18136;42.236;-73.040;2023-03-23T00:08:34;4.15;;;1.67;;
31526;SDS011;18136;42.236;-73.040;2023-03-23T00:11:14;2.47;;;1.40;;
31526;SDS011;18136;42.236;-73.040;2023-03-23T00:13:43;3.28;;;1.30;;
31526;SDS011;18136;42.236;-73.040;2023-03-23T00:16:11;4.00;;;1.30;;
31526;SDS011;18136;42.236;-73.040;2023-03-23T00:18:47;3.40;;;1.27;;
31526;SDS011;18136;42.236;-73.040;2023-03-23T00:21:19;3.37;;;1.27;;
31526;SDS011;18136;42.236;-73.040;2023-03-23T00:23:50;2.17;;;1.30;;
31526;SDS011;18136;42.236;-73.040;2023-03-23T00:26:17;2.30;;;1.27;;
31526;SDS011;18136;42.236;-73.040;2023-03-23T00:28:43;1.70;;;1.23;;
31526;SDS011;18136;42.236;-73.040;2023-03-23T00:31:11;2.40;;;1.67;;
31526;SDS011;18136;42.236;-73.040;2023-03-23T00:33:38;3.40;;;1.50;;
31526;SDS011;18136;42.236;-73.040;2023-03-23T00:36:08;5.65;;;1.48;;
31526;SDS011;18136;42.236;-73.040;2023-03-23T00:38:36;2.60;;;1.50;;
31526;SDS011;18136;42.236;-73.040;2023-03-23T00:41:04;4.43;;;1.48;;
31526;SDS011;18136;42.236;-73.040;2023-03-23T00:43:31;1.80;;;1.17;;
31526;SDS011;18136;42.236;-73.040;2023-03-23T00:46:01;3.50;;;1.48;;
31526;SDS011;18136;42.236;-73.040;2023-03-23T00:48:35;2.67;;;1.40;;
31526;SDS011;18136;42.236;-73.040;2023-03-23T00:51:10;3.60;;;1.67;;
31526;SDS011;18136;42.236;-73.040;2023-03-23T00:53:40;2.63;;;1.42;;
31526;SDS011;18136;42.236;-73.040;2023-03-23T00:56:07;4.72;;;1.38;;
31526;SDS011;18136;42.236;-73.040;2023-03-23T00:58:33;1.77;;;1.30;;
31526;SDS011;18136;42.236;-73.040;2023-03-23T01:01:01;2.72;;;1.23;;
31526;SDS011;18136;42.236;-73.040;2023-03-23T01:03:27;5.72;;;2.35;;
31526;SDS011;18136;42.236;-73.040;2023-03-23T01:05:54;4.75;;;1.65;;
31526;SDS011;18136;42.236;-73.040;2023-03-23T01:08:21;2.58;;;1.35;;
31526;SDS011;18136;42.236;-73.040;2023-03-23T01:10:49;10.80;;;2.28;;
31526;SDS011;18136;42.236;-73.040;2023-03-23T01:13:16;4.50;;;1.83;;
31526;SDS011;18136;42.236;-73.040;2023-03-23T01:15:42;2.97;;;1.50;;
31526;SDS011;18136;42.236;-73.040;2023-03-23T01:18:09;2.42;;;1.23;;
31526;SDS011;18136;42.236;-73.040;2023-03-23T01:20:36;5.25;;;1.60;;
31526;SDS011;18136;42.236;-73.040;2023-03-23T01:23:03;3.35;;;1.73;;
31526;SDS011;18136;42.236;-73.040;2023-03-23T01:25:30;3.63;;;1.50;;
31526;SDS011;18136;42.236;-73.040;2023-03-23T01:28:00;3.38;;;1.55;;
31526;SDS011;18136;42.236;-73.040;2023-03-23T01:30:26;4.30;;;1.42;;
31526;SDS011;18136;42.236;-73.040;2023-03-23T01:32:54;3.47;;;1.65;;
31526;SDS011;18136;42.236;-73.040;2023-03-23T01:35:20;5.03;;;1.85;;
31526;SDS011;18136;42.236;-73.040;2023-03-23T01:37:47;5.82;;;2.33;;
31526;SDS011;18136;42.236;-73.040;2023-03-23T01:40:14;2.75;;;1.85;;
31526;SDS011;18136;42.236;-73.040;2023-03-23T01:42:41;4.65;;;2.20;;
31526;SDS011;18136;42.236;-73.040;2023-03-23T01:47:49;5.57;;;1.90;;
31526;SDS011;18136;42.236;-73.040;2023-03-23T01:50:23;3.88;;;1.92;;
31526;SDS011;18136;42.236;-73.040;2023-03-23T01:52:53;4.18;;;1.90;;
31526;SDS011;18136;42.236;-73.040;2023-03-23T01:55:23;3.60;;;1.85;;
31526;SDS011;18136;42.236;-73.040;2023-03-23T01:57:51;4.05;;;2.10;;
31526;SDS011;18136;42.236;-73.040;2023-03-23T02:00:17;6.72;;;2.47;;
31526;SDS011;18136;42.236;-73.040;2023-03-23T02:02:45;2.85;;;1.90;;
31526;SDS011;18136;42.236;-73.040;2023-03-23T02:05:17;5.75;;;2.63;;
31526;SDS011;18136;42.236;-73.040;2023-03-23T02:07:57;5.65;;;2.65;;
31526;SDS011;18136;42.236;-73.040;2023-03-23T02:10:31;6.68;;;2.53;;
31526;SDS011;18136;42.236;-73.040;2023-03-23T02:12:58;4.10;;;2.30;;
31526;SDS011;18136;42.236;-73.040;2023-03-23T02:15:39;3.92;;;2.20;;
31526;SDS011;18136;42.236;-73.040;2023-03-23T02:24:01;5.57;;;2.78;;
31526;SDS011;18136;42.236;-73.040;2023-03-23T02:26:51;5.68;;;2.47;;
31526;SDS011;18136;42.236;-73.040;2023-03-23T02:29:37;5.22;;;3.15;;
31526;SDS011;18136;42.236;-73.040;2023-03-23T02:35:32;6.97;;;3.20;;
31526;SDS011;18136;42.236;-73.040;2023-03-23T02:38:07;5.63;;;2.78;;
31526;SDS011;18136;42.236;-73.040;2023-03-23T02:43:09;6.45;;;2.67;;
31526;SDS011;18136;42.236;-73.040;2023-03-23T02:45:37;6.25;;;2.50;;
31526;SDS011;18136;42.236;-73.040;2023-03-23T02:48:05;5.85;;;2.33;;
31526;SDS011;18136;42.236;-73.040;2023-03-23T02:50:33;4.22;;;2.38;;
31526;SDS011;18136;42.236;-73.040;2023-03-23T02:53:01;8.82;;;2.53;;
31526;SDS011;18136;42.236;-73.040;2023-03-23T02:55:30;5.72;;;2.50;;
31526;SDS011;18136;42.236;-73.040;2023-03-23T02:57:58;4.80;;;2.53;;
31526;SDS011;18136;42.236;-73.040;2023-03-23T03:00:27;5.97;;;2.45;;
31526;SDS011;18136;42.236;-73.040;2023-03-23T03:02:54;7.65;;;2.80;;
31526;SDS011;18136;42.236;-73.040;2023-03-23T03:05:40;4.03;;;2.58;;
31526;SDS011;18136;42.236;-73.040;2023-03-23T03:08:24;6.03;;;2.80;;
31526;SDS011;18136;42.236;-73.040;2023-03-23T03:10:54;5.15;;;3.05;;
31526;SDS011;18136;42.236;-73.040;2023-03-23T03:16:27;4.35;;;2.58;;
31526;SDS011;18136;42.236;-73.040;2023-03-23T03:18:57;6.47;;;3.17;;
31526;SDS011;18136;42.236;-73.040;2023-03-23T03:21:25;5.28;;;3.13;;
31526;SDS011;18136;42.236;-73.040;2023-03-23T03:23:56;5.45;;;3.03;;
31526;SDS011;18136;42.236;-73.040;2023-03-23T03:26:26;5.35;;;2.97;;
31526;SDS011;18136;42.236;-73.040;2023-03-23T03:28:54;5.00;;;3.20;;
31526;SDS011;18136;42.236;-73.040;2023-03-23T03:31:22;7.38;;;3.15;;
31526;SDS011;18136;42.236;-73.040;2023-03-23T03:33:53;8.15;;;3.38;;
31526;SDS011;18136;42.236;-73.040;2023-03-23T03:36:26;7.28;;;3.60;;
31526;SDS011;18136;42.236;-73.040;2023-03-23T03:39:00;6.70;;;4.20;;
31526;SDS011;18136;42.236;-73.040;2023-03-23T03:41:33;8.43;;;3.47;;
31526;SDS011;18136;42.236;-73.040;2023-03-23T03:44:01;7.80;;;4.00;;
31526;SDS011;18136;42.236;-73.040;2023-03-23T03:46:28;8.07;;;3.05;;
31526;SDS011;18136;42.236;-73.040;2023-03-23T03:48:58;9.85;;;3.83;;
31526;SDS011;18136;42.236;-73.040;2023-03-23T03:51:26;6.60;;;2.90;;
31526;SDS011;18136;42.236;-73.040;2023-03-23T03:53:53;4.28;;;2.88;;
31526;SDS011;18136;42.236;-73.040;2023-03-23T03:56:21;7.45;;;3.53;;
31526;SDS011;18136;42.236;-73.040;2023-03-23T03:58:48;8.70;;;3.38;;
31526;SDS011;18136;42.236;-73.040;2023-03-23T04:01:15;7.93;;;3.80;;
31526;SDS011;18136;42.236;-73.040;2023-03-23T04:03:43;8.93;;;3.83;;
31526;SDS011;18136;42.236;-73.040;2023-03-23T04:06:10;6.30;;;3.30;;
31526;SDS011;18136;42.236;-73.040;2023-03-23T04:08:39;7.60;;;3.30;;
31526;SDS011;18136;42.236;-73.040;2023-03-23T04:11:09;6.80;;;3.85;;
31526;SDS011;18136;42.236;-73.040;2023-03-23T04:13:38;9.75;;;3.35;;
31526;SDS011;18136;42.236;-73.040;2023-03-23T04:16:04;7.53;;;3.33;;
31526;SDS011;18136;42.236;-73.040;2023-03-23T04:18:31;8.18;;;3.70;;
31526;SDS011;18136;42.236;-73.040;2023-03-23T04:20:59;9.00;;;3.72;;
31526;SDS011;18136;42.236;-73.040;2023-03-23T04:23:27;8.30;;;3.45;;
31526;SDS011;18136;42.236;-73.040;2023-03-23T04:25:55;7.10;;;3.90;;
31526;SDS011;18136;42.236;-73.040;2023-03-23T04:28:24;8.55;;;3.55;;
31526;SDS011;18136;42.236;-73.040;2023-03-23T04:30:51;13.30;;;4.25;;
31526;SDS011;18136;42.236;-73.040;2023-03-23T04:33:23;6.18;;;3.30;;
31526;SDS011;18136;42.236;-73.040;2023-03-23T04:35:52;4.68;;;3.25;;
31526;SDS011;18136;42.236;-73.040;2023-03-23T04:38:20;5.35;;;3.58;;
31526;SDS011;18136;42.236;-73.040;2023-03-23T04:40:48;6.70;;;3.25;;
31526;SDS011;18136;42.236;-73.040;2023-03-23T04:43:19;7.47;;;3.55;;
31526;SDS011;18136;42.236;-73.040;2023-03-23T04:45:52;5.05;;;2.78;;
31526;SDS011;18136;42.236;-73.040;2023-03-23T04:48:26;6.38;;;3.35;;
31526;SDS011;18136;42.236;-73.040;2023-03-23T04:50:55;7.45;;;3.63;;
31526;SDS011;18136;42.236;-73.040;2023-03-23T04:53:25;8.48;;;3.33;;
31526;SDS011;18136;42.236;-73.040;2023-03-23T04:55:52;10.20;;;4.25;;
31526;SDS011;18136;42.236;-73.040;2023-03-23T04:58:18;9.05;;;4.03;;
31526;SDS011;18136;42.236;-73.040;2023-03-23T05:00:44;9.70;;;3.75;;
31526;SDS011;18136;42.236;-73.040;2023-03-23T05:03:15;7.55;;;3.55;;
31526;SDS011;18136;42.236;-73.040;2023-03-23T05:05:42;6.10;;;3.53;;
31526;SDS011;18136;42.236;-73.040;2023-03-23T05:08:12;6.68;;;3.65;;
31526;SDS011;18136;42.236;-73.040;2023-03-23T05:10:39;7.78;;;3.65;;
31526;SDS011;18136;42.236;-73.040;2023-03-23T05:13:06;6.88;;;3.60;;
31526;SDS011;18136;42.236;-73.040;2023-03-23T05:15:32;8.95;;;3.90;;
31526;SDS011;18136;42.236;-73.040;2023-03-23T05:17:58;8.98;;;4.00;;
31526;SDS011;18136;42.236;-73.040;2023-03-23T05:20:24;9.80;;;4.13;;
31526;SDS011;18136;42.236;-73.040;2023-03-23T05:22:50;6.50;;;3.50;;
31526;SDS011;18136;42.236;-73.040;2023-03-23T05:25:17;8.05;;;3.55;;
31526;SDS011;18136;42.236;-73.040;2023-03-23T05:27:45;7.28;;;3.70;;
31526;SDS011;18136;42.236;-73.040;2023-03-23T05:30:18;6.15;;;4.07;;
31526;SDS011;18136;42.236;-73.040;2023-03-23T05:32:47;7.35;;;3.30;;
31526;SDS011;18136;42.236;-73.040;2023-03-23T05:35:17;7.90;;;3.78;;
31526;SDS011;18136;42.236;-73.040;2023-03-23T05:37:45;8.43;;;4.05;;
31526;SDS011;18136;42.236;-73.040;2023-03-23T05:40:12;8.57;;;3.72;;
31526;SDS011;18136;42.236;-73.040;2023-03-23T05:42:39;5.85;;;3.78;;
31526;SDS011;18136;42.236;-73.040;2023-03-23T05:45:06;8.88;;;3.90;;
31526;SDS011;18136;42.236;-73.040;2023-03-23T05:47:36;10.40;;;3.85;;
31526;SDS011;18136;42.236;-73.040;2023-03-23T05:50:03;7.30;;;3.85;;
31526;SDS011;18136;42.236;-73.040;2023-03-23T05:52:31;10.07;;;4.13;;
31526;SDS011;18136;42.236;-73.040;2023-03-23T05:55:00;7.20;;;3.75;;
31526;SDS011;18136;42.236;-73.040;2023-03-23T05:57:28;6.82;;;3.80;;
31526;SDS011;18136;42.236;-73.040;2023-03-23T05:59:55;8.95;;;4.10;;
31526;SDS011;18136;42.236;-73.040;2023-03-23T06:02:23;7.13;;;4.00;;
31526;SDS011;18136;42.236;-73.040;2023-03-23T06:04:50;7.28;;;4.63;;
31526;SDS011;18136;42.236;-73.040;2023-03-23T06:07:22;10.05;;;3.95;;
31526;SDS011;18136;42.236;-73.040;2023-03-23T06:09:49;6.03;;;4.25;;
31526;SDS011;18136;42.236;-73.040;2023-03-23T06:12:16;7.20;;;4.05;;
31526;SDS011;18136;42.236;-73.040;2023-03-23T06:14:46;9.50;;;4.22;;
31526;SDS011;18136;42.236;-73.040;2023-03-23T06:17:13;7.57;;;4.20;;
31526;SDS011;18136;42.236;-73.040;2023-03-23T06:19:45;8.07;;;4.63;;
31526;SDS011;18136;42.236;-73.040;2023-03-23T06:22:13;7.00;;;4.50;;
31526;SDS011;18136;42.236;-73.040;2023-03-23T06:24:40;11.15;;;5.05;;
31526;SDS011;18136;42.236;-73.040;2023-03-23T06:27:06;8.23;;;4.70;;
31526;SDS011;18136;42.236;-73.040;2023-03-23T06:29:34;8.60;;;4.60;;
31526;SDS011;18136;42.236;-73.040;2023-03-23T06:32:01;9.05;;;5.18;;
31526;SDS011;18136;42.236;-73.040;2023-03-23T06:34:29;7.57;;;4.88;;
31526;SDS011;18136;42.236;-73.040;2023-03-23T06:36:56;10.63;;;5.15;;
31526;SDS011;18136;42.236;-73.040;2023-03-23T06:39:22;9.63;;;5.25;;
31526;SDS011;18136;42.236;-73.040;2023-03-23T06:41:49;11.15;;;5.15;;
31526;SDS011;18136;42.236;-73.040;2023-03-23T06:44:15;8.23;;;4.50;;
31526;SDS011;18136;42.236;-73.040;2023-03-23T06:46:42;7.78;;;5.28;;
31526;SDS011;18136;42.236;-73.040;2023-03-23T06:49:08;13.35;;;5.47;;
31526;SDS011;18136;42.236;-73.040;2023-03-23T06:51:35;9.55;;;4.80;;
31526;SDS011;18136;42.236;-73.040;2023-03-23T06:54:02;10.80;;;5.13;;
31526;SDS011;18136;42.236;-73.040;2023-03-23T06:56:29;4.93;;;4.25;;
31526;SDS011;18136;42.236;-73.040;2023-03-23T06:58:55;10.10;;;5.38;;
31526;SDS011;18136;42.236;-73.040;2023-03-23T07:01:22;8.07;;;5.32;;
31526;SDS011;18136;42.236;-73.040;2023-03-23T07:03:49;9.18;;;4.80;;
31526;SDS011;18136;42.236;-73.040;2023-03-23T07:06:15;6.43;;;5.32;;
31526;SDS011;18136;42.236;-73.040;2023-03-23T07:08:41;8.85;;;4.75;;
31526;SDS011;18136;42.236;-73.040;2023-03-23T07:11:08;7.78;;;5.10;;
31526;SDS011;18136;42.236;-73.040;2023-03-23T07:13:35;9.23;;;4.40;;
31526;SDS011;18136;42.236;-73.040;2023-03-23T07:16:04;9.45;;;4.80;;
31526;SDS011;18136;42.236;-73.040;2023-03-23T07:18:31;7.22;;;4.75;;
31526;SDS011;18136;42.236;-73.040;2023-03-23T07:20:57;11.65;;;4.82;;
31526;SDS011;18136;42.236;-73.040;2023-03-23T07:23:24;10.82;;;4.95;;
31526;SDS011;18136;42.236;-73.040;2023-03-23T07:25:50;5.88;;;5.18;;
31526;SDS011;18136;42.236;-73.040;2023-03-23T07:28:17;6.65;;;4.78;;
31526;SDS011;18136;42.236;-73.040;2023-03-23T07:30:43;8.25;;;5.43;;
31526;SDS011;18136;42.236;-73.040;2023-03-23T07:33:10;13.68;;;7.75;;
31526;SDS011;18136;42.236;-73.040;2023-03-23T07:35:36;9.75;;;6.50;;
31526;SDS011;18136;42.236;-73.040;2023-03-23T07:38:03;9.07;;;6.25;;
31526;SDS011;18136;42.236;-73.040;2023-03-23T07:40:31;7.78;;;5.30;;
31526;SDS011;18136;42.236;-73.040;2023-03-23T07:43:00;8.55;;;5.53;;
31526;SDS011;18136;42.236;-73.040;2023-03-23T07:45:28;8.70;;;5.43;;
31526;SDS011;18136;42.236;-73.040;2023-03-23T07:47:56;9.63;;;5.72;;
31526;SDS011;18136;42.236;-73.040;2023-03-23T07:50:22;7.22;;;5.22;;
31526;SDS011;18136;42.236;-73.040;2023-03-23T07:52:56;9.32;;;5.78;;
31526;SDS011;18136;42.236;-73.040;2023-03-23T07:55:23;10.85;;;6.05;;
31526;SDS011;18136;42.236;-73.040;2023-03-23T07:57:50;7.03;;;4.60;;
31526;SDS011;18136;42.236;-73.040;2023-03-23T08:00:18;8.90;;;5.93;;
31526;SDS011;18136;42.236;-73.040;2023-03-23T08:02:46;7.40;;;5.57;;
31526;SDS011;18136;42.236;-73.040;2023-03-23T08:05:15;7.88;;;5.78;;
31526;SDS011;18136;42.236;-73.040;2023-03-23T08:07:43;14.98;;;5.70;;
31526;SDS011;18136;42.236;-73.040;2023-03-23T08:10:10;9.95;;;5.40;;
31526;SDS011;18136;42.236;-73.040;2023-03-23T08:12:38;10.63;;;5.75;;
31526;SDS011;18136;42.236;-73.040;2023-03-23T08:15:07;7.82;;;6.10;;
31526;SDS011;18136;42.236;-73.040;2023-03-23T08:17:35;8.00;;;5.47;;
31526;SDS011;18136;42.236;-73.040;2023-03-23T08:20:01;6.82;;;5.25;;
31526;SDS011;18136;42.236;-73.040;2023-03-23T08:22:38;11.13;;;6.03;;
31526;SDS011;18136;42.236;-73.040;2023-03-23T08:25:14;8.63;;;5.15;;
31526;SDS011;18136;42.236;-73.040;2023-03-23T08:27:42;32.15;;;6.45;;
31526;SDS011;18136;42.236;-73.040;2023-03-23T08:30:10;7.50;;;5.38;;
31526;SDS011;18136;42.236;-73.040;2023-03-23T08:32:38;10.63;;;4.90;;
31526;SDS011;18136;42.236;-73.040;2023-03-23T08:35:05;9.30;;;5.10;;
31526;SDS011;18136;42.236;-73.040;2023-03-23T08:37:34;8.27;;;4.93;;
31526;SDS011;18136;42.236;-73.040;2023-03-23T08:40:00;8.50;;;5.22;;
31526;SDS011;18136;42.236;-73.040;2023-03-23T08:42:32;9.20;;;5.50;;
31526;SDS011;18136;42.236;-73.040;2023-03-23T08:44:58;7.00;;;4.75;;
31526;SDS011;18136;42.236;-73.040;2023-03-23T08:47:24;9.02;;;5.30;;
31526;SDS011;18136;42.236;-73.040;2023-03-23T08:49:51;10.25;;;5.05;;
31526;SDS011;18136;42.236;-73.040;2023-03-23T08:52:20;7.43;;;5.30;;
31526;SDS011;18136;42.236;-73.040;2023-03-23T08:54:46;9.18;;;5.93;;
31526;SDS011;18136;42.236;-73.040;2023-03-23T08:57:14;11.40;;;5.47;;
31526;SDS011;18136;42.236;-73.040;2023-03-23T08:59:41;6.10;;;5.05;;
31526;SDS011;18136;42.236;-73.040;2023-03-23T09:02:09;7.25;;;5.38;;
31526;SDS011;18136;42.236;-73.040;2023-03-23T09:04:39;6.85;;;4.75;;
31526;SDS011;18136;42.236;-73.040;2023-03-23T09:07:08;7.10;;;4.60;;
31526;SDS011;18136;42.236;-73.040;2023-03-23T09:09:36;10.45;;;5.63;;
31526;SDS011;18136;42.236;-73.040;2023-03-23T09:12:04;8.38;;;5.15;;
31526;SDS011;18136;42.236;-73.040;2023-03-23T09:14:31;9.85;;;5.50;;
31526;SDS011;18136;42.236;-73.040;2023-03-23T09:16:58;7.78;;;5.05;;
31526;SDS011;18136;42.236;-73.040;2023-03-23T09:19:24;6.35;;;5.00;;
31526;SDS011;18136;42.236;-73.040;2023-03-23T09:21:50;6.63;;;4.90;;
31526;SDS011;18136;42.236;-73.040;2023-03-23T09:24:16;8.32;;;5.43;;
31526;SDS011;18136;42.236;-73.040;2023-03-23T09:26:42;8.43;;;5.95;;
31526;SDS011;18136;42.236;-73.040;2023-03-23T09:29:08;9.77;;;5.55;;
31526;SDS011;18136;42.236;-73.040;2023-03-23T09:31:34;8.15;;;5.68;;
31526;SDS011;18136;42.236;-73.040;2023-03-23T09:34:01;7.63;;;5.38;;
31526;SDS011;18136;42.236;-73.040;2023-03-23T09:36:29;12.27;;;6.38;;
31526;SDS011;18136;42.236;-73.040;2023-03-23T09:38:55;10.45;;;6.70;;
31526;SDS011;18136;42.236;-73.040;2023-03-23T09:41:33;10.43;;;6.55;;
31526;SDS011;18136;42.236;-73.040;2023-03-23T09:52:03;15.77;;;6.95;;
31526;SDS011;18136;42.236;-73.040;2023-03-23T09:54:58;9.52;;;6.88;;
31526;SDS011;18136;42.236;-73.040;2023-03-23T09:57:27;8.52;;;6.10;;
31526;SDS011;18136;42.236;-73.040;2023-03-23T10:02:43;9.75;;;6.78;;
31526;SDS011;18136;42.236;-73.040;2023-03-23T10:05:39;8.85;;;6.78;;
31526;SDS011;18136;42.236;-73.040;2023-03-23T10:08:26;6.95;;;6.18;;
31526;SDS011;18136;42.236;-73.040;2023-03-23T10:16:29;9.85;;;5.75;;
31526;SDS011;18136;42.236;-73.040;2023-03-23T10:21:41;7.97;;;6.15;;
31526;SDS011;18136;42.236;-73.040;2023-03-23T10:24:21;10.52;;;7.05;;
31526;SDS011;18136;42.236;-73.040;2023-03-23T10:29:44;6.72;;;5.47;;
31526;SDS011;18136;42.236;-73.040;2023-03-23T10:32:17;12.18;;;7.60;;
31526;SDS011;18136;42.236;-73.040;2023-03-23T10:35:03;8.98;;;6.13;;
31526;SDS011;18136;42.236;-73.040;2023-03-23T10:37:37;8.85;;;5.97;;
31526;SDS011;18136;42.236;-73.040;2023-03-23T10:40:11;10.45;;;6.88;;
31526;SDS011;18136;42.236;-73.040;2023-03-23T10:42:42;9.38;;;6.97;;
31526;SDS011;18136;42.236;-73.040;2023-03-23T10:45:12;9.57;;;6.63;;
31526;SDS011;18136;42.236;-73.040;2023-03-23T10:47:44;12.73;;;6.82;;
31526;SDS011;18136;42.236;-73.040;2023-03-23T10:50:15;7.70;;;5.78;;
31526;SDS011;18136;42.236;-73.040;2023-03-23T10:52:47;9.05;;;6.50;;
31526;SDS011;18136;42.236;-73.040;2023-03-23T10:55:19;9.10;;;6.65;;
31526;SDS011;18136;42.236;-73.040;2023-03-23T10:58:05;8.82;;;6.35;;
31526;SDS011;18136;42.236;-73.040;2023-03-23T11:00:40;39.17;;;6.82;;
31526;SDS011;18136;42.236;-73.040;2023-03-23T11:08:21;6.88;;;6.10;;
31526;SDS011;18136;42.236;-73.040;2023-03-23T11:10:54;7.68;;;6.50;;
31526;SDS011;18136;42.236;-73.040;2023-03-23T11:13:32;9.07;;;6.20;;
31526;SDS011;18136;42.236;-73.040;2023-03-23T11:15:59;11.75;;;7.43;;
31526;SDS011;18136;42.236;-73.040;2023-03-23T11:18:39;10.60;;;7.10;;
31526;SDS011;18136;42.236;-73.040;2023-03-23T11:21:11;14.15;;;7.82;;
31526;SDS011;18136;42.236;-73.040;2023-03-23T11:23:40;15.60;;;8.98;;
31526;SDS011;18136;42.236;-73.040;2023-03-23T11:26:13;13.07;;;7.80;;
31526;SDS011;18136;42.236;-73.040;2023-03-23T11:28:55;9.48;;;7.38;;
31526;SDS011;18136;42.236;-73.040;2023-03-23T11:31:41;11.63;;;8.45;;
31526;SDS011;18136;42.236;-73.040;2023-03-23T11:34:10;9.65;;;7.75;;
31526;SDS011;18136;42.236;-73.040;2023-03-23T11:36:41;10.50;;;8.52;;
31526;SDS011;18136;42.236;-73.040;2023-03-23T11:41:48;14.40;;;9.35;;
31526;SDS011;18136;42.236;-73.040;2023-03-23T11:44:14;12.75;;;9.30;;
31526;SDS011;18136;42.236;-73.040;2023-03-23T11:49:26;9.93;;;8.57;;
31526;SDS011;18136;42.236;-73.040;2023-03-23T11:52:26;12.93;;;9.35;;
31526;SDS011;18136;42.236;-73.040;2023-03-23T11:55:15;10.57;;;8.68;;
31526;SDS011;18136;42.236;-73.040;2023-03-23T11:57:43;10.00;;;8.98;;
31526;SDS011;18136;42.236;-73.040;2023-03-23T12:00:14;13.75;;;8.85;;
31526;SDS011;18136;42.236;-73.040;2023-03-23T12:03:01;10.85;;;8.93;;
31526;SDS011;18136;42.236;-73.040;2023-03-23T12:11:16;11.40;;;9.18;;
31526;SDS011;18136;42.236;-73.040;2023-03-23T12:16:30;11.32;;;9.07;;
31526;SDS011;18136;42.236;-73.040;2023-03-23T12:36:19;10.82;;;9.43;;
31526;SDS011;18136;42.236;-73.040;2023-03-23T12:39:08;13.57;;;10.07;;
31526;SDS011;18136;42.236;-73.040;2023-03-23T12:42:07;17.13;;;7.80;;
31526;SDS011;18136;42.236;-73.040;2023-03-23T12:44:58;10.88;;;8.95;;
31526;SDS011;18136;42.236;-73.040;2023-03-23T12:50:05;13.15;;;10.13;;
31526;SDS011;18136;42.236;-73.040;2023-03-23T12:52:36;13.73;;;10.15;;
31526;SDS011;18136;42.236;-73.040;2023-03-23T12:55:14;11.70;;;9.98;;
31526;SDS011;18136;42.236;-73.040;2023-03-23T13:05:37;18.17;;;11.32;;
31526;SDS011;18136;42.236;-73.040;2023-03-23T13:08:39;11.60;;;9.90;;
31526;SDS011;18136;42.236;-73.040;2023-03-23T13:11:32;11.10;;;9.65;;
31526;SDS011;18136;42.236;-73.040;2023-03-23T13:14:12;13.32;;;9.82;;
31526;SDS011;18136;42.236;-73.040;2023-03-23T13:20:26;19.33;;;10.20;;
31526;SDS011;18136;42.236;-73.040;2023-03-23T13:22:26;15.65;;;10.00;;
31526;SDS011;18136;42.236;-73.040;2023-03-23T13:24:58;11.00;;;9.10;;
31526;SDS011;18136;42.236;-73.040;2023-03-23T13:27:27;10.40;;;9.23;;
31526;SDS011;18136;42.236;-73.040;2023-03-23T13:29:58;13.85;;;9.23;;
31526;SDS011;18136;42.236;-73.040;2023-03-23T13:32:42;14.18;;;9.85;;
31526;SDS011;18136;42.236;-73.040;2023-03-23T13:35:13;12.82;;;9.80;;
31526;SDS011;18136;42.236;-73.040;2023-03-23T13:37:49;15.63;;;9.88;;
31526;SDS011;18136;42.236;-73.040;2023-03-23T13:40:24;12.15;;;9.38;;
31526;SDS011;18136;42.236;-73.040;2023-03-23T13:42:55;10.52;;;8.95;;
31526;SDS011;18136;42.236;-73.040;2023-03-23T13:45:46;12.85;;;9.38;;
31526;SDS011;18136;42.236;-73.040;2023-03-23T13:50:48;12.10;;;8.80;;
31526;SDS011;18136;42.236;-73.040;2023-03-23T13:56:17;9.73;;;8.57;;
31526;SDS011;18136;42.236;-73.040;2023-03-23T13:59:16;10.10;;;8.10;;
31526;SDS011;18136;42.236;-73.040;2023-03-23T14:01:54;14.10;;;8.65;;
31526;SDS011;18136;42.236;-73.040;2023-03-23T14:04:22;11.25;;;8.02;;
31526;SDS011;18136;42.236;-73.040;2023-03-23T14:07:07;9.35;;;7.90;;
31526;SDS011;18136;42.236;-73.040;2023-03-23T14:09:39;11.55;;;8.88;;
31526;SDS011;18136;42.236;-73.040;2023-03-23T14:12:21;11.48;;;8.25;;
31526;SDS011;18136;42.236;-73.040;2023-03-23T14:14:55;11.57;;;8.88;;
31526;SDS011;18136;42.236;-73.040;2023-03-23T14:17:31;11.88;;;8.63;;
31526;SDS011;18136;42.236;-73.040;2023-03-23T14:23:14;11.93;;;9.38;;
31526;SDS011;18136;42.236;-73.040;2023-03-23T14:25:42;9.77;;;8.40;;
31526;SDS011;18136;42.236;-73.040;2023-03-23T14:28:18;12.85;;;7.80;;
31526;SDS011;18136;42.236;-73.040;2023-03-23T14:30:46;11.45;;;8.27;;
31526;SDS011;18136;42.236;-73.040;2023-03-23T14:33:17;10.88;;;8.50;;
31526;SDS011;18136;42.236;-73.040;2023-03-23T14:35:45;11.65;;;8.35;;
31526;SDS011;18136;42.236;-73.040;2023-03-23T14:38:18;13.30;;;8.10;;
31526;SDS011;18136;42.236;-73.040;2023-03-23T14:40:49;10.75;;;8.07;;
31526;SDS011;18136;42.236;-73.040;2023-03-23T14:43:20;12.77;;;8.32;;
31526;SDS011;18136;42.236;-73.040;2023-03-23T14:45:54;10.70;;;7.32;;
31526;SDS011;18136;42.236;-73.040;2023-03-23T14:48:23;11.85;;;7.38;;
31526;SDS011;18136;42.236;-73.040;2023-03-23T14:51:00;11.80;;;7.40;;
31526;SDS011;18136;42.236;-73.040;2023-03-23T14:53:39;10.50;;;8.15;;
31526;SDS011;18136;42.236;-73.040;2023-03-23T14:56:17;12.68;;;7.35;;
31526;SDS011;18136;42.236;-73.040;2023-03-23T14:58:46;8.88;;;7.32;;
31526;SDS011;18136;42.236;-73.040;2023-03-23T15:01:17;8.55;;;7.18;;
31526;SDS011;18136;42.236;-73.040;2023-03-23T15:06:34;13.10;;;7.70;;
31526;SDS011;18136;42.236;-73.040;2023-03-23T15:09:04;9.77;;;7.00;;
31526;SDS011;18136;42.236;-73.040;2023-03-23T15:11:35;13.38;;;6.53;;
31526;SDS011;18136;42.236;-73.040;2023-03-23T15:14:17;11.45;;;6.65;;
31526;SDS011;18136;42.236;-73.040;2023-03-23T15:16:52;7.35;;;6.05;;
31526;SDS011;18136;42.236;-73.040;2023-03-23T15:19:32;12.25;;;5.75;;
31526;SDS011;18136;42.236;-73.040;2023-03-23T15:22:11;8.23;;;4.75;;
31526;SDS011;18136;42.236;-73.040;2023-03-23T15:24:39;6.82;;;5.30;;
31526;SDS011;18136;42.236;-73.040;2023-03-23T15:29:54;9.07;;;5.47;;
31526;SDS011;18136;42.236;-73.040;2023-03-23T15:35:13;7.25;;;5.20;;
31526;SDS011;18136;42.236;-73.040;2023-03-23T15:37:49;7.63;;;6.00;;
31526;SDS011;18136;42.236;-73.040;2023-03-23T15:40:30;6.75;;;5.00;;
31526;SDS011;18136;42.236;-73.040;2023-03-23T15:43:07;8.63;;;5.32;;
31526;SDS011;18136;42.236;-73.040;2023-03-23T15:51:22;7.93;;;4.60;;
31526;SDS011;18136;42.236;-73.040;2023-03-23T15:53:51;5.95;;;5.35;;
31526;SDS011;18136;42.236;-73.040;2023-03-23T15:56:19;5.90;;;4.82;;
31526;SDS011;18136;42.236;-73.040;2023-03-23T15:58:46;8.30;;;5.95;;
31526;SDS011;18136;42.236;-73.040;2023-03-23T16:01:30;7.40;;;5.63;;
31526;SDS011;18136;42.236;-73.040;2023-03-23T16:06:25;7.43;;;5.57;;
31526;SDS011;18136;42.236;-73.040;2023-03-23T16:08:52;11.15;;;5.82;;
31526;SDS011;18136;42.236;-73.040;2023-03-23T16:11:23;6.45;;;5.25;;
31526;SDS011;18136;42.236;-73.040;2023-03-23T16:13:54;7.88;;;5.00;;
31526;SDS011;18136;42.236;-73.040;2023-03-23T16:16:22;6.25;;;5.18;;
31526;SDS011;18136;42.236;-73.040;2023-03-23T16:19:02;6.68;;;5.65;;
31526;SDS011;18136;42.236;-73.040;2023-03-23T16:21:30;10.88;;;5.05;;
31526;SDS011;18136;42.236;-73.040;2023-03-23T16:23:56;5.90;;;5.07;;
31526;SDS011;18136;42.236;-73.040;2023-03-23T16:26:23;7.22;;;4.68;;
31526;SDS011;18136;42.236;-73.040;2023-03-23T16:28:49;7.13;;;4.72;;
31526;SDS011;18136;42.236;-73.040;2023-03-23T16:31:19;5.85;;;4.43;;
31526;SDS011;18136;42.236;-73.040;2023-03-23T16:33:45;5.68;;;4.25;;